createdAt,value
2023-05-10T00:07:49.334Z,15.68
2023-05-10T00:17:53.048Z,15.45
2023-05-10T00:27:58.275Z,15.35
2023-05-10T00:38:01.943Z,15.24
2023-05-10T00:48:07.814Z,15.08
2023-05-10T00:58:11.481Z,15.13
2023-05-10T01:08:16.699Z,14.96
2023-05-10T01:18:22.749Z,14.88
2023-05-10T01:29:17.245Z,14.78
2023-05-10T01:39:28.040Z,14.78
2023-05-10T01:49:37.116Z,14.69
2023-05-10T01:59:45.304Z,14.53
2023-05-10T02:09:51.898Z,14.57
2023-05-10T02:19:58.535Z,14.62
2023-05-10T02:30:02.840Z,14.59
2023-05-10T02:40:09.824Z,14.46
2023-05-10T02:50:13.671Z,14.38
2023-05-10T03:00:19.253Z,14.36
2023-05-10T03:10:29.415Z,14.42
2023-05-10T03:20:42.594Z,14.24
2023-05-10T03:30:47.777Z,14.26
2023-05-10T03:40:52.718Z,14.26
2023-05-10T03:50:56.322Z,14.18
2023-05-10T04:01:01.305Z,14.17
2023-05-10T04:11:09.178Z,14.28
2023-05-10T04:21:17.227Z,14.31
2023-05-10T04:31:21.107Z,14.43
2023-05-10T04:41:26.224Z,14.59
2023-05-10T04:51:32.258Z,14.67
2023-05-10T05:01:37.327Z,14.93
2023-05-10T05:11:41.379Z,15.18
2023-05-10T05:21:46.364Z,15.12
2023-05-10T05:31:50.143Z,15.05
2023-05-10T05:41:55.163Z,14.92
2023-05-10T05:52:02.034Z,15.07
2023-05-10T06:02:09.912Z,15.09
2023-05-10T06:12:13.716Z,15.33
2023-05-10T06:22:18.982Z,15.31
2023-05-10T06:32:23.080Z,15.44
2023-05-10T06:42:28.337Z,15.48
2023-05-10T06:52:31.998Z,15.89
2023-05-10T07:02:37.071Z,16.16
2023-05-10T07:12:40.849Z,16.21
2023-05-10T07:22:45.910Z,16.65
2023-05-10T07:32:49.766Z,16.50
2023-05-10T07:42:54.854Z,16.45
2023-05-10T07:52:58.944Z,16.29
2023-05-10T08:03:04.118Z,16.21
2023-05-10T08:13:07.859Z,16.41
2023-05-10T08:23:14.198Z,17.61
2023-05-10T08:33:18.014Z,18.05
2023-05-10T08:43:23.081Z,18.56
2023-05-10T08:53:28.987Z,18.99
2023-05-10T09:03:34.353Z,18.99
2023-05-10T09:13:38.626Z,18.28
2023-05-10T09:23:48.646Z,17.99
2023-05-10T09:33:53.712Z,18.03
2023-05-10T09:43:58.999Z,18.57
2023-05-10T09:54:13.932Z,18.66
2023-05-10T10:04:21.433Z,18.38
2023-05-10T10:14:25.815Z,18.53
2023-05-10T10:24:30.891Z,19.28
2023-05-10T10:34:35.148Z,18.25
2023-05-10T10:44:42.560Z,17.88
2023-05-10T10:54:53.190Z,18.84
2023-05-10T11:04:58.213Z,19.77
2023-05-10T11:15:01.991Z,19.51
2023-05-10T11:25:09.067Z,18.68
2023-05-10T11:35:14.474Z,18.68
2023-05-10T11:45:19.829Z,18.92
2023-05-10T11:55:25.142Z,19.50
2023-05-10T12:05:34.397Z,18.98
2023-05-10T12:15:38.477Z,18.02
2023-05-10T12:25:43.715Z,17.74
2023-05-10T12:35:49.562Z,17.95
2023-05-10T12:45:54.588Z,18.55
2023-05-10T12:55:58.574Z,19.35
2023-05-10T13:06:03.830Z,20.10
2023-05-10T13:16:08.677Z,19.71
2023-05-10T13:26:14.184Z,19.54
2023-05-10T13:36:17.921Z,19.56
2023-05-10T13:46:22.942Z,19.73
2023-05-10T13:56:26.711Z,20.75
2023-05-10T14:06:31.672Z,20.92
2023-05-10T14:16:35.508Z,20.95
2023-05-10T14:26:40.533Z,21.15
2023-05-10T14:36:44.202Z,21.00
2023-05-10T14:46:49.311Z,21.07
2023-05-10T14:56:52.873Z,21.26
2023-05-10T15:07:00.120Z,21.18
2023-05-10T15:17:04.011Z,21.39
2023-05-10T15:27:09.671Z,21.44
2023-05-10T15:37:13.608Z,21.23
2023-05-10T15:47:18.764Z,21.54
2023-05-10T15:57:22.523Z,20.71
2023-05-10T16:07:27.677Z,20.14
2023-05-10T16:17:31.563Z,19.76
2023-05-10T16:27:37.106Z,19.72
2023-05-10T16:37:40.801Z,19.26
2023-05-10T16:47:46.173Z,18.93
2023-05-10T16:57:50.486Z,18.82
2023-05-10T17:07:55.976Z,18.79
2023-05-10T17:17:59.692Z,18.94
2023-05-10T17:28:04.806Z,18.78
2023-05-10T17:38:08.866Z,18.72
2023-05-10T17:48:13.910Z,18.60
2023-05-10T17:58:17.697Z,18.17
2023-05-10T18:08:26.694Z,17.88
2023-05-10T18:18:30.366Z,17.66
2023-05-10T18:28:35.601Z,17.53
2023-05-10T18:38:40.145Z,17.27
2023-05-10T18:48:45.097Z,17.04
2023-05-10T18:58:48.708Z,16.76
2023-05-10T19:08:53.770Z,16.32
2023-05-10T19:18:57.873Z,15.84
2023-05-10T19:29:03.533Z,15.42
2023-05-10T19:39:07.855Z,15.32
2023-05-10T19:49:12.954Z,15.24
2023-05-10T19:59:16.714Z,15.00
2023-05-10T20:09:21.644Z,14.94
2023-05-10T20:19:25.983Z,14.42
2023-05-10T20:29:32.415Z,14.36
2023-05-10T20:39:36.063Z,14.68
2023-05-10T20:49:41.274Z,14.51
2023-05-10T20:59:44.947Z,14.28
2023-05-10T21:09:49.981Z,14.27
2023-05-10T21:19:53.837Z,14.10
2023-05-10T21:29:59.110Z,14.06
2023-05-10T21:40:03.401Z,13.96
2023-05-10T21:50:10.402Z,13.91
2023-05-10T22:00:16.332Z,13.64
2023-05-10T22:10:21.846Z,13.66
2023-05-10T22:20:25.526Z,13.42
2023-05-10T22:30:32.785Z,13.09
2023-05-10T22:40:36.755Z,13.11
2023-05-10T22:50:41.843Z,13.01
2023-05-10T23:00:45.778Z,12.79
2023-05-10T23:10:51.058Z,12.53
2023-05-10T23:20:56.206Z,12.48
2023-05-10T23:31:01.475Z,12.47
2023-05-10T23:41:05.848Z,12.41
2023-05-10T23:51:10.844Z,12.29
